createdAt,value
2017-09-17T00:00:53.219Z,8.26
2017-09-17T00:01:53.216Z,8.23
2017-09-17T00:02:53.206Z,8.15
2017-09-17T00:03:53.206Z,8.15
2017-09-17T00:04:53.205Z,8.13
2017-09-17T00:05:53.215Z,8.23
2017-09-17T00:06:53.203Z,8.27
2017-09-17T00:07:53.200Z,8.26
2017-09-17T00:08:53.197Z,8.26
2017-09-17T00:09:53.193Z,8.36
2017-09-17T00:10:53.190Z,8.28
2017-09-17T00:11:53.189Z,8.27
2017-09-17T00:12:53.185Z,8.26
2017-09-17T00:13:53.185Z,8.27
2017-09-17T00:14:53.183Z,8.28
2017-09-17T00:15:53.180Z,8.16
2017-09-17T00:16:53.177Z,8.09
2017-09-17T00:17:53.175Z,8.15
2017-09-17T00:18:53.177Z,8.06
2017-09-17T00:19:53.170Z,8.06
2017-09-17T00:20:53.167Z,8.09
2017-09-17T00:21:53.169Z,7.98
2017-09-17T00:22:53.161Z,7.97
2017-09-17T00:23:53.161Z,8.06
2017-09-17T00:24:53.160Z,8.00
2017-09-17T00:25:53.158Z,8.03
2017-09-17T00:26:53.153Z,8.03
2017-09-17T00:27:53.152Z,8.03
2017-09-17T00:28:53.148Z,8.03
2017-09-17T00:29:53.157Z,8.01
2017-09-17T00:30:53.142Z,7.97
2017-09-17T00:31:53.161Z,7.95
2017-09-17T00:32:53.137Z,7.94
2017-09-17T00:33:53.137Z,7.93
2017-09-17T00:34:53.133Z,7.95
2017-09-17T00:35:53.133Z,7.97
2017-09-17T00:36:53.128Z,7.90
2017-09-17T00:37:53.124Z,7.97
2017-09-17T00:38:53.120Z,7.94
2017-09-17T00:39:53.120Z,7.91
2017-09-17T00:40:53.117Z,7.85
2017-09-17T00:41:53.117Z,7.87
2017-09-17T00:42:53.113Z,7.87
2017-09-17T00:43:53.107Z,7.82
2017-09-17T00:44:53.110Z,7.88
2017-09-17T00:45:53.103Z,7.82
2017-09-17T00:46:53.101Z,7.90
2017-09-17T00:47:53.098Z,7.82
2017-09-17T00:48:53.102Z,7.82
2017-09-17T00:49:53.095Z,7.76
2017-09-17T00:50:53.095Z,7.76
2017-09-17T00:51:53.086Z,7.80
2017-09-17T00:52:53.090Z,7.70
2017-09-17T00:53:53.076Z,7.85
2017-09-17T00:54:53.102Z,7.75
2017-09-17T00:55:53.075Z,7.82
2017-09-17T00:56:53.074Z,7.87
2017-09-17T00:57:53.075Z,7.85
2017-09-17T00:58:53.066Z,7.90
2017-09-17T00:59:53.071Z,7.85
2017-09-17T01:00:53.063Z,7.85
2017-09-17T01:01:53.060Z,7.85
2017-09-17T01:02:53.057Z,7.82
2017-09-17T01:03:53.051Z,7.85
2017-09-17T01:04:53.066Z,7.90
2017-09-17T01:05:53.047Z,7.87
2017-09-17T01:06:53.045Z,7.82
2017-09-17T01:07:53.045Z,7.77
2017-09-17T01:08:53.042Z,7.80
2017-09-17T01:09:53.040Z,7.77
2017-09-17T01:10:53.036Z,7.75
2017-09-17T01:11:53.040Z,7.73
2017-09-17T01:14:16.103Z,7.70
2017-09-17T01:15:16.080Z,7.73
2017-09-17T01:17:09.572Z,7.73
2017-09-17T01:18:09.443Z,7.54
2017-09-17T01:19:09.447Z,7.72
2017-09-17T01:20:09.440Z,7.60
2017-09-17T01:21:09.436Z,7.58
2017-09-17T01:22:09.436Z,7.58
2017-09-17T01:23:09.431Z,7.54
2017-09-17T01:24:09.429Z,7.58
2017-09-17T01:25:09.426Z,7.58
2017-09-17T01:26:09.422Z,7.75
2017-09-17T01:27:09.423Z,7.72
2017-09-17T01:28:09.419Z,7.73
2017-09-17T01:29:09.418Z,7.67
2017-09-17T01:30:09.409Z,7.75
2017-09-17T01:31:09.410Z,7.57
2017-09-17T01:32:09.407Z,7.58
2017-09-17T01:33:09.404Z,7.63
2017-09-17T01:34:09.405Z,7.61
2017-09-17T01:35:09.401Z,7.57
2017-09-17T01:36:09.397Z,7.51
2017-09-17T01:37:09.392Z,7.51
2017-09-17T01:38:09.393Z,7.54
2017-09-17T01:39:09.405Z,7.45
2017-09-17T01:40:09.387Z,7.51
2017-09-17T01:41:09.384Z,7.38
2017-09-17T01:42:09.375Z,7.42
2017-09-17T01:43:09.376Z,7.40
2017-09-17T01:44:09.369Z,7.42
2017-09-17T01:45:09.370Z,7.42
2017-09-17T01:46:09.369Z,7.40
2017-09-17T01:47:09.369Z,7.43
2017-09-17T01:48:09.361Z,7.39
2017-09-17T01:49:09.356Z,7.50
2017-09-17T01:50:09.356Z,7.45
2017-09-17T01:51:09.355Z,7.42
2017-09-17T01:52:09.350Z,7.47
2017-09-17T01:53:09.346Z,7.39
2017-09-17T01:54:09.345Z,7.40
2017-09-17T01:55:09.341Z,7.40
2017-09-17T01:56:09.342Z,7.43
2017-09-17T01:57:09.335Z,7.42
2017-09-17T01:58:09.332Z,7.43
2017-09-17T01:59:09.326Z,7.40
2017-09-17T02:00:09.327Z,7.53
2017-09-17T02:01:09.323Z,7.56
2017-09-17T02:02:09.324Z,7.51
2017-09-17T02:03:09.319Z,7.54
2017-09-17T02:04:09.314Z,7.53
2017-09-17T02:05:09.313Z,7.42
2017-09-17T02:06:09.309Z,7.42
2017-09-17T02:07:09.307Z,7.42
2017-09-17T02:08:09.304Z,7.40
2017-09-17T02:09:09.302Z,7.38
2017-09-17T02:10:09.298Z,7.43
2017-09-17T02:11:09.293Z,7.35
2017-09-17T02:12:09.292Z,7.29
2017-09-17T02:13:09.288Z,7.35
2017-09-17T02:14:09.288Z,7.35
2017-09-17T02:15:09.282Z,7.35
2017-09-17T02:16:09.275Z,7.28
2017-09-17T02:17:09.278Z,7.36
2017-09-17T02:18:09.273Z,7.21
2017-09-17T02:19:09.268Z,7.21
2017-09-17T02:20:09.268Z,7.23
2017-09-17T02:21:09.265Z,7.25
2017-09-17T02:22:09.261Z,7.20
2017-09-17T02:23:09.259Z,7.29
2017-09-17T02:24:09.256Z,7.21
2017-09-17T02:25:09.249Z,7.28
2017-09-17T02:26:09.248Z,7.23
2017-09-17T02:27:09.243Z,7.25
2017-09-17T02:28:09.243Z,7.29
2017-09-17T02:29:09.240Z,7.32
2017-09-17T02:30:09.245Z,7.36
2017-09-17T02:31:09.239Z,7.42
2017-09-17T02:32:09.231Z,7.29
2017-09-17T02:33:09.224Z,7.29
2017-09-17T02:34:09.225Z,7.32
2017-09-17T02:35:09.222Z,7.38
2017-09-17T02:36:09.218Z,7.14
2017-09-17T02:37:09.218Z,7.24
2017-09-17T02:38:09.213Z,7.28
2017-09-17T02:39:09.210Z,7.28
2017-09-17T02:40:09.204Z,7.17
2017-09-17T02:41:09.211Z,7.24
2017-09-17T02:42:09.198Z,7.17
2017-09-17T02:43:09.197Z,7.17
2017-09-17T02:44:09.196Z,7.24
2017-09-17T02:45:09.194Z,7.20
2017-09-17T02:46:09.190Z,7.17
2017-09-17T02:47:09.185Z,7.18
2017-09-17T02:48:09.179Z,7.03
2017-09-17T02:49:09.181Z,7.13
2017-09-17T02:50:09.183Z,7.06
2017-09-17T02:51:09.173Z,7.07
2017-09-17T02:52:09.171Z,7.06
2017-09-17T02:53:09.168Z,7.11
2017-09-17T02:54:09.163Z,7.10
2017-09-17T02:55:09.158Z,7.15
2017-09-17T02:56:09.158Z,7.23
2017-09-17T02:57:09.154Z,7.23
2017-09-17T02:58:09.151Z,7.17
2017-09-17T02:59:09.145Z,7.24
2017-09-17T03:00:09.147Z,7.24
2017-09-17T03:01:09.141Z,7.32
2017-09-17T03:02:09.139Z,7.23
2017-09-17T03:03:09.130Z,7.24
2017-09-17T03:04:09.133Z,7.24
2017-09-17T03:05:09.131Z,7.25
2017-09-17T03:06:09.132Z,7.15
2017-09-17T03:07:09.125Z,7.06
2017-09-17T03:08:09.119Z,7.10
2017-09-17T03:09:09.118Z,7.17
2017-09-17T03:10:09.112Z,7.05
2017-09-17T03:11:09.112Z,7.00
2017-09-17T03:12:09.109Z,7.02
2017-09-17T03:13:09.105Z,7.03
2017-09-17T03:14:09.101Z,7.05
2017-09-17T03:15:09.095Z,7.07
2017-09-17T03:16:09.095Z,6.92
2017-09-17T03:17:09.088Z,6.93
2017-09-17T03:18:09.091Z,7.05
2017-09-17T03:19:09.079Z,6.92
2017-09-17T03:20:09.082Z,7.05
2017-09-17T03:21:09.077Z,7.03
2017-09-17T03:22:09.075Z,6.95
2017-09-17T03:23:09.071Z,7.02
2017-09-17T03:24:09.068Z,6.89
2017-09-17T03:25:09.065Z,6.87
2017-09-17T03:26:09.068Z,6.93
2017-09-17T03:27:09.059Z,6.88
2017-09-17T03:28:09.056Z,6.92
2017-09-17T03:29:09.052Z,6.79
2017-09-17T03:30:09.050Z,6.87
2017-09-17T03:31:09.046Z,6.96
2017-09-17T03:32:09.043Z,6.95
2017-09-17T03:33:09.040Z,6.89
2017-09-17T03:34:09.035Z,6.92
2017-09-17T03:35:09.032Z,6.96
2017-09-17T03:36:09.033Z,7.03
2017-09-17T03:37:09.023Z,7.00
2017-09-17T03:38:09.021Z,6.99
2017-09-17T03:39:09.024Z,7.05
2017-09-17T03:40:09.019Z,6.99
2017-09-17T03:41:09.013Z,6.97
2017-09-17T03:42:09.011Z,7.00
2017-09-17T03:43:09.001Z,6.95
2017-09-17T03:44:09.002Z,6.95
2017-09-17T03:45:09.000Z,6.85
2017-09-17T03:46:08.997Z,6.92
2017-09-17T03:47:08.992Z,6.82
2017-09-17T03:48:08.990Z,6.85
2017-09-17T03:49:08.986Z,6.78
2017-09-17T03:50:08.984Z,6.84
2017-09-17T03:51:08.985Z,6.85
2017-09-17T03:52:08.976Z,6.81
2017-09-17T03:53:08.975Z,6.75
2017-09-17T03:54:08.970Z,6.85
2017-09-17T03:55:08.967Z,6.81
2017-09-17T03:56:08.962Z,6.85
2017-09-17T03:57:08.960Z,6.79
2017-09-17T03:58:08.954Z,6.84
2017-09-17T03:59:08.953Z,6.85
2017-09-17T04:00:08.950Z,6.85
2017-09-17T04:01:08.947Z,6.88
2017-09-17T04:02:08.941Z,6.81
2017-09-17T04:03:08.939Z,6.82
2017-09-17T04:04:08.934Z,6.79
2017-09-17T04:05:08.931Z,6.72
2017-09-17T04:06:08.932Z,6.72
2017-09-17T04:07:08.924Z,6.75
2017-09-17T04:08:08.920Z,6.77
2017-09-17T04:09:08.918Z,6.79
2017-09-17T04:10:08.928Z,6.82
2017-09-17T04:11:08.914Z,6.88
2017-09-17T04:12:08.911Z,6.85
2017-09-17T04:13:08.909Z,6.81
2017-09-17T04:14:08.901Z,6.82
2017-09-17T04:15:08.898Z,6.82
2017-09-17T04:16:08.900Z,6.84
2017-09-17T04:17:08.891Z,6.88
2017-09-17T04:18:08.889Z,6.82
2017-09-17T04:19:08.887Z,6.79
2017-09-17T04:20:08.884Z,6.85
2017-09-17T04:21:08.877Z,6.93
2017-09-17T04:22:08.873Z,6.84
2017-09-17T04:23:08.866Z,6.84
2017-09-17T04:24:08.868Z,6.85
2017-09-17T04:25:08.865Z,6.84
2017-09-17T04:26:08.860Z,6.84
2017-09-17T04:27:08.871Z,6.84
2017-09-17T04:28:08.854Z,6.82
2017-09-17T04:29:08.852Z,6.92
2017-09-17T04:30:08.849Z,6.87
2017-09-17T04:31:08.849Z,6.87
2017-09-17T04:32:08.840Z,6.89
2017-09-17T04:33:08.837Z,6.93
2017-09-17T04:34:08.835Z,6.88
2017-09-17T04:35:08.831Z,6.95
2017-09-17T04:36:08.820Z,6.92
2017-09-17T04:37:08.828Z,6.87
2017-09-17T04:38:08.822Z,7.03
2017-09-17T04:39:08.817Z,7.05
2017-09-17T04:40:08.822Z,6.99
2017-09-17T04:41:08.813Z,7.05
2017-09-17T04:42:08.805Z,7.02
2017-09-17T04:43:08.805Z,7.00
2017-09-17T04:44:08.797Z,7.10
2017-09-17T04:45:08.798Z,7.13
2017-09-17T04:46:08.796Z,7.17
2017-09-17T04:47:08.790Z,7.20
2017-09-17T04:48:08.789Z,7.15
2017-09-17T04:49:08.785Z,7.02
2017-09-17T04:50:08.791Z,7.03
2017-09-17T04:51:08.780Z,7.03
2017-09-17T04:52:08.783Z,7.02
2017-09-17T04:53:08.777Z,7.07
2017-09-17T04:54:08.769Z,7.07
2017-09-17T04:55:08.765Z,7.15
2017-09-17T04:56:08.767Z,7.10
2017-09-17T04:57:08.759Z,7.20
2017-09-17T04:58:08.756Z,7.18
2017-09-17T04:59:08.751Z,7.14
2017-09-17T05:00:08.752Z,7.03
2017-09-17T05:01:08.747Z,7.13
2017-09-17T05:02:08.748Z,7.24
2017-09-17T05:03:08.741Z,7.25
2017-09-17T05:04:08.735Z,7.25
2017-09-17T05:05:08.737Z,7.24
2017-09-17T05:06:08.733Z,7.25
2017-09-17T05:07:08.727Z,7.23
2017-09-17T05:08:08.728Z,7.20
2017-09-17T05:09:08.722Z,7.21
2017-09-17T05:10:08.718Z,7.20
2017-09-17T05:11:08.714Z,7.24
2017-09-17T05:12:08.716Z,7.24
2017-09-17T05:13:08.708Z,7.24
2017-09-17T05:14:08.705Z,7.23
2017-09-17T05:15:08.705Z,7.20
2017-09-17T05:16:08.699Z,7.25
2017-09-17T05:17:08.696Z,7.25
2017-09-17T05:18:08.693Z,7.24
2017-09-17T05:19:08.693Z,7.14
2017-09-17T05:20:08.691Z,7.21
2017-09-17T05:21:08.690Z,7.29
2017-09-17T05:22:08.685Z,7.14
2017-09-17T05:23:08.679Z,7.28
2017-09-17T05:24:08.675Z,7.35
2017-09-17T05:25:08.676Z,7.35
2017-09-17T05:26:08.682Z,7.38
2017-09-17T05:27:08.669Z,7.32
2017-09-17T05:28:08.663Z,7.33
2017-09-17T05:29:08.661Z,7.40
2017-09-17T05:30:08.667Z,7.43
2017-09-17T05:31:08.658Z,7.40
2017-09-17T05:32:08.654Z,7.57
2017-09-17T05:33:08.650Z,7.54
2017-09-17T05:34:08.648Z,7.60
2017-09-17T05:35:08.648Z,7.56
2017-09-17T05:36:08.646Z,7.63
2017-09-17T05:37:08.637Z,7.58
2017-09-17T05:38:08.633Z,7.57
2017-09-17T05:39:08.633Z,7.75
2017-09-17T05:40:08.628Z,7.75
2017-09-17T05:41:08.626Z,7.70
2017-09-17T05:42:08.623Z,7.70
2017-09-17T05:43:08.622Z,7.76
2017-09-17T05:44:08.622Z,7.83
2017-09-17T05:45:08.622Z,7.75
2017-09-17T05:46:08.610Z,7.88
2017-09-17T05:47:08.616Z,7.80
2017-09-17T05:48:08.607Z,7.82
2017-09-17T05:49:08.607Z,7.88
2017-09-17T05:50:08.604Z,7.91
2017-09-17T05:51:08.601Z,7.91
2017-09-17T05:52:08.605Z,7.94
2017-09-17T05:53:08.605Z,7.94
2017-09-17T05:54:08.593Z,7.98
2017-09-17T05:55:08.592Z,7.98
2017-09-17T05:56:08.589Z,7.95
2017-09-17T05:57:08.587Z,8.03
2017-09-17T05:58:08.588Z,8.05
2017-09-17T05:59:08.581Z,8.00
2017-09-17T06:00:08.581Z,8.10
2017-09-17T06:01:08.578Z,8.03
2017-09-17T06:02:08.574Z,8.16
2017-09-17T06:03:08.572Z,8.19
2017-09-17T06:04:08.571Z,8.16
2017-09-17T06:05:08.569Z,8.20
2017-09-17T06:06:08.564Z,8.24
2017-09-17T06:07:08.565Z,8.26
2017-09-17T06:08:08.562Z,8.34
2017-09-17T06:09:08.558Z,8.28
2017-09-17T06:10:08.557Z,8.41
2017-09-17T06:11:08.555Z,8.34
2017-09-17T06:12:08.554Z,8.38
2017-09-17T06:13:08.557Z,8.33
2017-09-17T06:14:08.551Z,8.34
2017-09-17T06:15:08.547Z,8.33
2017-09-17T06:16:08.543Z,8.37
2017-09-17T06:17:08.548Z,8.46
2017-09-17T06:18:08.542Z,8.49
2017-09-17T06:19:08.538Z,8.46
2017-09-17T06:20:08.538Z,8.46
2017-09-17T06:21:08.538Z,8.46
2017-09-17T06:22:08.533Z,8.61
2017-09-17T06:23:08.530Z,8.67
2017-09-17T06:24:08.528Z,8.64
2017-09-17T06:25:08.528Z,8.66
2017-09-17T06:26:08.524Z,8.69
2017-09-17T06:27:08.527Z,8.76
2017-09-17T06:28:08.527Z,8.78
2017-09-17T06:29:08.515Z,8.82
2017-09-17T06:30:08.519Z,8.85
2017-09-17T06:31:08.515Z,8.84
2017-09-17T06:32:08.513Z,8.95
2017-09-17T06:33:08.510Z,8.95
2017-09-17T06:34:08.512Z,8.92
2017-09-17T06:35:08.510Z,9.04
2017-09-17T06:36:08.507Z,9.00
2017-09-17T06:37:08.506Z,9.02
2017-09-17T06:38:08.499Z,9.13
2017-09-17T06:39:08.503Z,9.16
2017-09-17T06:40:08.501Z,9.22
2017-09-17T06:41:08.499Z,9.26
2017-09-17T06:42:08.500Z,9.22
2017-09-17T06:43:08.497Z,9.37
2017-09-17T06:44:08.493Z,9.31
2017-09-17T06:45:08.493Z,9.32
2017-09-17T06:46:08.488Z,9.44
2017-09-17T06:47:08.492Z,9.48
2017-09-17T06:48:08.490Z,9.55
2017-09-17T06:49:08.486Z,9.55
2017-09-17T06:50:08.487Z,9.59
2017-09-17T06:51:08.486Z,9.58
2017-09-17T06:52:08.484Z,9.62
2017-09-17T06:53:08.498Z,9.74
2017-09-17T06:54:09.083Z,9.73
2017-09-17T06:55:08.484Z,9.79
2017-09-17T06:56:10.076Z,9.83
2017-09-17T06:57:08.516Z,9.77
2017-09-17T06:58:08.477Z,9.86
2017-09-17T06:59:08.478Z,9.94
2017-09-17T07:00:08.477Z,9.89
2017-09-17T07:01:08.475Z,9.91
2017-09-17T07:02:08.476Z,9.92
2017-09-17T07:03:08.479Z,10.02
2017-09-17T07:04:08.474Z,10.07
2017-09-17T07:05:08.479Z,10.04
2017-09-17T07:06:08.471Z,10.16
2017-09-17T07:07:08.471Z,10.35
2017-09-17T07:08:08.472Z,10.34
2017-09-17T07:09:08.471Z,10.40
2017-09-17T07:10:08.468Z,10.37
2017-09-17T07:11:08.468Z,10.53
2017-09-17T07:12:08.469Z,10.49
2017-09-17T07:13:08.469Z,10.63
2017-09-17T07:14:08.466Z,10.71
2017-09-17T07:15:08.466Z,10.76
2017-09-17T07:16:08.467Z,10.74
2017-09-17T07:17:08.468Z,10.71
2017-09-17T07:18:08.466Z,10.69
2017-09-17T07:19:08.461Z,10.72
2017-09-17T07:20:08.468Z,10.71
2017-09-17T07:21:08.466Z,10.69
2017-09-17T07:22:08.463Z,10.82
2017-09-17T07:23:08.466Z,10.82
2017-09-17T07:24:08.465Z,10.89
2017-09-17T07:25:08.464Z,10.84
2017-09-17T07:26:08.463Z,10.93
2017-09-17T07:27:08.464Z,10.94
2017-09-17T07:28:08.458Z,10.94
2017-09-17T07:29:08.468Z,10.99
2017-09-17T07:30:08.464Z,11.02
2017-09-17T07:31:08.462Z,11.18
2017-09-17T07:32:08.463Z,11.10
2017-09-17T07:33:08.468Z,11.14
2017-09-17T07:34:08.463Z,11.22
2017-09-17T07:35:08.463Z,11.26
2017-09-17T07:36:08.465Z,11.33
2017-09-17T07:37:08.463Z,11.25
2017-09-17T07:38:08.464Z,11.32
2017-09-17T07:39:08.466Z,11.33
2017-09-17T07:40:08.468Z,11.43
2017-09-17T07:41:08.467Z,11.47
2017-09-17T07:42:08.467Z,11.43
2017-09-17T07:43:08.469Z,11.47
2017-09-17T07:44:08.465Z,11.52
2017-09-17T07:45:08.468Z,11.51
2017-09-17T07:46:08.469Z,11.55
2017-09-17T07:47:08.467Z,11.55
2017-09-17T07:48:08.472Z,11.62
2017-09-17T07:49:08.470Z,11.62
2017-09-17T07:50:08.469Z,11.69
2017-09-17T07:51:08.470Z,11.77
2017-09-17T07:52:08.474Z,11.84
2017-09-17T07:53:08.473Z,11.95
2017-09-17T07:54:08.472Z,11.90
2017-09-17T07:55:08.475Z,12.02
2017-09-17T07:56:08.472Z,12.13
2017-09-17T07:57:08.473Z,12.07
2017-09-17T07:58:08.474Z,12.20
2017-09-17T07:59:08.476Z,12.21
2017-09-17T08:00:08.480Z,12.22
2017-09-17T08:01:08.479Z,12.28
2017-09-17T08:02:08.478Z,12.21
2017-09-17T08:03:08.480Z,12.22
2017-09-17T08:04:08.476Z,12.22
2017-09-17T08:05:08.482Z,12.22
2017-09-17T08:06:08.480Z,12.25
2017-09-17T08:07:08.480Z,12.21
2017-09-17T08:08:08.482Z,12.20
2017-09-17T08:09:08.483Z,12.15
2017-09-17T08:10:08.501Z,12.20
2017-09-17T08:11:08.484Z,12.20
2017-09-17T08:12:08.487Z,12.07
2017-09-17T08:13:08.492Z,12.12
2017-09-17T08:14:08.490Z,12.15
2017-09-17T08:15:08.488Z,12.06
2017-09-17T08:16:08.493Z,12.20
2017-09-17T08:17:08.497Z,12.21
2017-09-17T08:18:08.492Z,12.29
2017-09-17T08:19:08.491Z,12.36
2017-09-17T08:20:08.498Z,12.45
2017-09-17T08:21:08.495Z,12.53
2017-09-17T08:22:08.494Z,12.70
2017-09-17T08:23:08.498Z,12.68
2017-09-17T08:24:08.500Z,12.75
2017-09-17T08:25:08.508Z,12.91
2017-09-17T08:26:08.498Z,12.90
2017-09-17T08:27:08.499Z,12.95
2017-09-17T08:28:08.508Z,13.03
2017-09-17T08:29:08.503Z,13.16
2017-09-17T08:30:08.509Z,13.27
2017-09-17T08:31:08.505Z,13.33
2017-09-17T08:32:08.505Z,13.33
2017-09-17T08:33:08.508Z,13.47
2017-09-17T08:34:08.507Z,13.50
2017-09-17T08:35:08.513Z,13.54
2017-09-17T08:36:08.510Z,13.54
2017-09-17T08:37:08.513Z,13.72
2017-09-17T08:38:08.512Z,13.74
2017-09-17T08:39:08.522Z,13.83
2017-09-17T08:40:08.510Z,13.93
2017-09-17T08:41:08.517Z,13.96
2017-09-17T08:42:08.524Z,14.05
2017-09-17T08:43:08.525Z,14.10
2017-09-17T08:44:08.522Z,14.23
2017-09-17T08:45:08.525Z,14.32
2017-09-17T08:46:08.530Z,14.32
2017-09-17T08:47:08.528Z,14.40
2017-09-17T08:48:08.529Z,14.50
2017-09-17T08:49:08.534Z,14.66
2017-09-17T08:50:08.536Z,14.68
2017-09-17T08:51:08.540Z,14.69
2017-09-17T08:52:08.543Z,14.84
2017-09-17T08:53:08.539Z,14.82
2017-09-17T08:54:08.542Z,14.96
2017-09-17T08:55:08.546Z,15.06
2017-09-17T08:56:08.549Z,15.00
2017-09-17T08:57:08.554Z,15.07
2017-09-17T08:58:08.561Z,15.24
2017-09-17T08:59:08.556Z,15.29
2017-09-17T09:00:08.553Z,15.27
2017-09-17T09:01:08.563Z,15.27
2017-09-17T09:02:08.591Z,15.27
2017-09-17T09:03:08.569Z,15.19
2017-09-17T09:04:08.571Z,15.22
2017-09-17T09:05:08.588Z,15.10
2017-09-17T09:06:08.576Z,15.15
2017-09-17T09:07:08.579Z,15.09
2017-09-17T09:08:08.585Z,15.07
2017-09-17T09:09:08.587Z,14.96
2017-09-17T09:10:08.588Z,14.94
2017-09-17T09:11:08.602Z,14.85
2017-09-17T09:12:08.602Z,14.88
2017-09-17T09:13:08.605Z,14.78
2017-09-17T09:14:08.626Z,14.94
2017-09-17T09:15:08.609Z,14.99
2017-09-17T09:16:08.611Z,14.99
2017-09-17T09:17:08.614Z,14.86
2017-09-17T09:18:08.616Z,14.99
2017-09-17T09:19:08.619Z,14.97
2017-09-17T09:20:08.624Z,14.96
2017-09-17T09:21:08.626Z,14.92
2017-09-17T09:22:08.629Z,15.02
2017-09-17T09:23:08.636Z,15.14
2017-09-17T09:24:08.636Z,15.22
2017-09-17T09:25:08.640Z,15.24
2017-09-17T09:26:08.642Z,15.17
2017-09-17T09:27:08.649Z,15.24
2017-09-17T09:28:08.645Z,15.36
2017-09-17T09:29:08.652Z,15.42
2017-09-17T09:30:08.653Z,15.31
2017-09-17T09:31:08.658Z,15.33
2017-09-17T09:32:08.661Z,15.18
2017-09-17T09:33:08.668Z,15.27
2017-09-17T09:34:08.667Z,15.33
2017-09-17T09:35:08.672Z,15.31
2017-09-17T09:36:08.675Z,15.42
2017-09-17T09:37:08.678Z,15.25
2017-09-17T09:38:08.680Z,15.29
2017-09-17T09:39:08.683Z,15.42
2017-09-17T09:40:08.687Z,15.55
2017-09-17T09:41:08.690Z,15.40
2017-09-17T09:42:08.693Z,15.43
2017-09-17T09:43:08.763Z,15.49
2017-09-17T09:44:08.701Z,15.43
2017-09-17T09:45:08.706Z,15.39
2017-09-17T09:46:08.711Z,15.33
2017-09-17T09:47:08.711Z,15.31
2017-09-17T09:48:08.714Z,15.36
2017-09-17T09:49:08.719Z,15.28
2017-09-17T09:50:08.724Z,15.43
2017-09-17T09:51:08.726Z,15.31
2017-09-17T09:52:08.731Z,15.35
2017-09-17T09:53:08.737Z,15.37
2017-09-17T09:54:08.736Z,15.44
2017-09-17T09:55:08.739Z,15.44
2017-09-17T09:56:08.776Z,15.35
2017-09-17T09:57:08.744Z,15.33
2017-09-17T09:58:08.749Z,15.35
2017-09-17T09:59:08.754Z,15.31
2017-09-17T10:00:08.756Z,15.29
2017-09-17T10:01:08.802Z,15.27
2017-09-17T10:02:08.762Z,15.21
2017-09-17T10:03:08.767Z,15.14
2017-09-17T10:04:08.775Z,15.18
2017-09-17T10:05:08.777Z,15.25
2017-09-17T10:06:08.798Z,15.17
2017-09-17T10:07:08.817Z,15.18
2017-09-17T10:08:08.778Z,15.19
2017-09-17T10:09:08.800Z,15.24
2017-09-17T10:10:08.790Z,15.24
2017-09-17T10:11:08.788Z,15.31
2017-09-17T10:12:08.790Z,15.27
2017-09-17T10:13:08.808Z,15.21
2017-09-17T10:14:08.797Z,15.25
2017-09-17T10:15:08.802Z,15.24
2017-09-17T10:16:08.813Z,15.35
2017-09-17T10:17:08.807Z,15.44
2017-09-17T10:18:08.810Z,15.43
2017-09-17T10:19:08.812Z,15.62
2017-09-17T10:20:08.818Z,15.73
2017-09-17T10:21:08.817Z,15.83
2017-09-17T10:22:08.821Z,16.10
2017-09-17T10:23:08.827Z,16.10
2017-09-17T10:24:08.830Z,16.31
2017-09-17T10:25:08.835Z,16.36
2017-09-17T10:26:08.837Z,16.39
2017-09-17T10:27:08.839Z,16.41
2017-09-17T10:28:08.886Z,16.47
2017-09-17T10:29:08.850Z,16.50
2017-09-17T10:30:08.847Z,16.60
2017-09-17T10:31:08.852Z,16.78
2017-09-17T10:32:08.856Z,16.83
2017-09-17T10:33:08.865Z,17.01
2017-09-17T10:34:08.863Z,17.14
2017-09-17T10:35:08.879Z,17.27
2017-09-17T10:36:08.874Z,17.24
2017-09-17T10:37:08.877Z,17.30
2017-09-17T10:38:08.880Z,17.24
2017-09-17T10:39:08.881Z,17.26
2017-09-17T10:40:08.884Z,17.39
2017-09-17T10:41:08.893Z,17.60
2017-09-17T10:42:08.895Z,17.44
2017-09-17T10:43:08.902Z,17.52
2017-09-17T10:44:08.906Z,17.57
2017-09-17T10:45:08.911Z,17.52
2017-09-17T10:46:08.915Z,17.56
2017-09-17T10:47:08.920Z,17.57
2017-09-17T10:48:08.924Z,17.71
2017-09-17T10:49:08.932Z,17.59
2017-09-17T10:50:08.934Z,17.34
2017-09-17T10:51:08.945Z,17.36
2017-09-17T10:52:08.946Z,17.12
2017-09-17T10:53:08.956Z,16.87
2017-09-17T10:54:08.955Z,16.69
2017-09-17T10:55:08.962Z,16.60
2017-09-17T10:56:08.966Z,16.36
2017-09-17T10:57:08.971Z,16.32
2017-09-17T10:58:08.975Z,16.26
2017-09-17T10:59:08.981Z,16.24
2017-09-17T11:00:08.987Z,16.38
2017-09-17T11:01:08.989Z,16.36
2017-09-17T11:02:08.991Z,16.46
2017-09-17T11:03:09.001Z,16.46
2017-09-17T11:04:09.005Z,16.53
2017-09-17T11:05:09.008Z,16.68
2017-09-17T11:06:09.013Z,16.68
2017-09-17T11:07:09.019Z,16.81
2017-09-17T11:08:09.024Z,16.65
2017-09-17T11:09:09.028Z,16.64
2017-09-17T11:10:09.033Z,16.56
2017-09-17T11:11:09.038Z,16.54
2017-09-17T11:12:09.043Z,16.38
2017-09-17T11:13:09.055Z,16.29
2017-09-17T11:14:09.050Z,16.51
2017-09-17T11:15:09.052Z,16.53
2017-09-17T11:16:09.059Z,16.53
2017-09-17T11:17:09.063Z,16.35
2017-09-17T11:18:09.073Z,16.09
2017-09-17T11:19:09.075Z,16.13
2017-09-17T11:20:09.083Z,16.23
2017-09-17T11:21:09.082Z,16.17
2017-09-17T11:22:09.087Z,16.24
2017-09-17T11:23:09.104Z,16.26
2017-09-17T11:24:09.109Z,16.33
2017-09-17T11:25:09.108Z,16.39
2017-09-17T11:26:09.103Z,16.61
2017-09-17T11:27:09.106Z,16.64
2017-09-17T11:28:09.128Z,16.56
2017-09-17T11:29:09.115Z,16.65
2017-09-17T11:30:09.117Z,16.69
2017-09-17T11:31:09.116Z,16.76
2017-09-17T11:32:09.125Z,16.78
2017-09-17T11:33:09.132Z,16.86
2017-09-17T11:34:09.165Z,16.96
2017-09-17T11:35:09.138Z,17.06
2017-09-17T11:36:09.147Z,17.05
2017-09-17T11:37:09.148Z,17.08
2017-09-17T11:38:09.150Z,17.06
2017-09-17T11:39:09.154Z,17.14
2017-09-17T11:40:09.158Z,17.24
2017-09-17T11:41:09.168Z,17.34
2017-09-17T11:42:09.169Z,17.38
2017-09-17T11:43:09.171Z,17.31
2017-09-17T11:44:09.176Z,17.29
2017-09-17T11:45:09.184Z,17.31
2017-09-17T11:46:09.186Z,17.22
2017-09-17T11:47:09.189Z,17.30
2017-09-17T11:48:09.195Z,17.34
2017-09-17T11:49:09.200Z,17.36
2017-09-17T11:50:09.201Z,17.44
2017-09-17T11:51:09.209Z,17.49
2017-09-17T11:52:09.216Z,17.33
2017-09-17T11:53:09.221Z,17.36
2017-09-17T11:54:09.227Z,17.29
2017-09-17T11:55:09.228Z,17.19
2017-09-17T11:56:09.232Z,17.01
2017-09-17T11:57:09.236Z,16.89
2017-09-17T11:58:09.243Z,16.72
2017-09-17T11:59:09.245Z,16.61
2017-09-17T12:00:09.252Z,16.49
2017-09-17T12:01:09.257Z,16.57
2017-09-17T12:02:09.263Z,16.61
2017-09-17T12:03:09.266Z,16.74
2017-09-17T12:04:09.281Z,16.89
2017-09-17T12:05:09.273Z,16.91
2017-09-17T12:06:09.278Z,16.94
2017-09-17T12:07:09.285Z,16.91
2017-09-17T12:08:09.293Z,16.87
2017-09-17T12:09:09.289Z,16.91
2017-09-17T12:10:09.295Z,16.90
2017-09-17T12:11:09.302Z,16.90
2017-09-17T12:12:09.316Z,16.94
2017-09-17T12:13:09.307Z,16.96
2017-09-17T12:14:09.323Z,16.99
2017-09-17T12:15:09.318Z,17.06
2017-09-17T12:16:09.323Z,17.06
2017-09-17T12:17:09.327Z,17.15
2017-09-17T12:18:09.333Z,17.14
2017-09-17T12:19:09.336Z,17.23
2017-09-17T12:20:09.344Z,17.29
2017-09-17T12:21:09.347Z,17.24
2017-09-17T12:22:09.348Z,17.31
2017-09-17T12:23:09.352Z,17.36
2017-09-17T12:24:09.369Z,17.30
2017-09-17T12:25:09.363Z,17.34
2017-09-17T12:26:09.367Z,17.34
2017-09-17T12:27:09.372Z,17.31
2017-09-17T12:28:09.377Z,17.42
2017-09-17T12:29:09.381Z,17.63
2017-09-17T12:30:09.386Z,17.74
2017-09-17T12:31:09.443Z,17.79
2017-09-17T12:32:09.395Z,17.79
2017-09-17T12:33:09.405Z,17.80
2017-09-17T12:34:09.405Z,17.89
2017-09-17T12:35:09.417Z,17.79
2017-09-17T12:36:09.412Z,17.82
2017-09-17T12:37:09.424Z,17.76
2017-09-17T12:38:09.423Z,17.54
2017-09-17T12:39:09.423Z,17.48
2017-09-17T12:40:09.435Z,17.41
2017-09-17T12:41:09.476Z,17.33
2017-09-17T12:42:18.088Z,17.33
2017-09-17T12:44:29.046Z,17.33
2017-09-17T12:45:29.062Z,17.46
2017-09-17T12:47:22.534Z,17.33
2017-09-17T12:48:22.444Z,17.38
2017-09-17T12:50:16.870Z,17.48
2017-09-17T12:51:16.845Z,17.39
2017-09-17T12:53:10.278Z,17.45
2017-09-17T12:54:10.223Z,17.64
2017-09-17T12:56:03.620Z,17.76
2017-09-17T12:57:03.606Z,17.70
2017-09-17T12:58:58.012Z,18.03
2017-09-17T12:59:57.999Z,18.20
2017-09-17T13:01:51.400Z,18.47
2017-09-17T13:02:51.405Z,18.56
2017-09-17T13:04:44.997Z,18.37
2017-09-17T13:05:44.984Z,18.59
2017-09-17T13:06:44.990Z,18.66
2017-09-17T13:07:45.000Z,18.74
2017-09-17T13:08:44.999Z,18.68
2017-09-17T13:09:45.041Z,18.62
2017-09-17T13:10:45.011Z,18.58
2017-09-17T13:11:45.016Z,18.70
2017-09-17T13:12:45.024Z,18.77
2017-09-17T13:13:45.029Z,18.81
2017-09-17T13:14:45.051Z,18.65
2017-09-17T13:15:45.040Z,18.50
2017-09-17T13:16:45.049Z,18.37